createdAt,value
2023-02-06T00:00:25.691Z,96455.97
2023-02-06T00:02:52.247Z,96469.06
2023-02-06T00:05:18.859Z,96471.66
2023-02-06T00:07:46.829Z,96475.78
2023-02-06T00:10:13.514Z,96476.47
2023-02-06T00:12:40.060Z,96479.06
2023-02-06T00:15:07.216Z,96481.84
2023-02-06T00:17:35.117Z,96478.56
2023-02-06T00:20:01.920Z,96479.22
2023-02-06T00:22:28.469Z,96493.13
2023-02-06T00:24:56.341Z,96491.50
2023-02-06T00:27:22.942Z,96489.03
2023-02-06T00:29:49.511Z,96500.16
2023-02-06T00:32:16.334Z,96502.63
2023-02-06T00:34:42.896Z,96505.09
2023-02-06T00:37:09.451Z,96512.13
2023-02-06T00:39:36.132Z,96516.69
2023-02-06T00:42:04.126Z,96520.28
2023-02-06T00:44:30.672Z,96523.72
2023-02-06T00:46:58.721Z,96529.41
2023-02-06T00:49:25.514Z,96521.09
2023-02-06T00:51:52.056Z,96513.25
2023-02-06T00:54:20.779Z,96517.81
2023-02-06T00:56:47.536Z,96514.66
2023-02-06T00:59:15.483Z,96526.78
2023-02-06T01:01:42.179Z,96530.38
2023-02-06T01:04:08.723Z,96527.63
2023-02-06T01:06:35.259Z,96520.88
2023-02-06T01:09:01.820Z,96525.97
2023-02-06T01:11:28.461Z,96532.75
2023-02-06T01:13:55.188Z,96542.75
2023-02-06T01:16:24.823Z,96539.50
2023-02-06T01:18:51.204Z,96531.63
2023-02-06T01:21:22.847Z,96540.03
2023-02-06T01:23:51.985Z,96527.06
2023-02-06T01:26:20.264Z,96515.78
2023-02-06T01:28:47.871Z,96521.03
2023-02-06T01:31:17.248Z,96520.19
2023-02-06T01:33:46.094Z,96518.53
2023-02-06T01:36:13.449Z,96523.63
2023-02-06T01:38:40.735Z,96523.63
2023-02-06T01:41:08.987Z,96521.84
2023-02-06T01:43:36.989Z,96517.97
2023-02-06T01:46:04.060Z,96528.06
2023-02-06T01:48:34.305Z,96520.88
2023-02-06T01:51:05.173Z,96530.66
2023-02-06T01:53:32.679Z,96521.03
2023-02-06T01:56:04.619Z,96518.94
2023-02-06T01:58:34.302Z,96515.94
2023-02-06T02:01:01.577Z,96515.25
2023-02-06T02:03:29.927Z,96508.09
2023-02-06T02:06:05.932Z,96510.84
2023-02-06T02:08:36.657Z,96509.72
2023-02-06T02:11:05.297Z,96510.84
2023-02-06T02:13:32.157Z,96505.47
2023-02-06T02:16:01.056Z,96509.72
2023-02-06T02:18:55.381Z,96502.03
2023-02-06T02:21:58.586Z,96507.41
2023-02-06T02:24:38.787Z,96515.25
2023-02-06T02:27:29.902Z,96511.66
2023-02-06T02:30:41.577Z,96503.13
2023-02-06T02:33:20.030Z,96490.88
2023-02-06T02:35:54.730Z,96498.06
2023-02-06T02:38:30.530Z,96490.06
2023-02-06T02:41:03.696Z,96499.47
2023-02-06T02:43:38.252Z,96495.28
2023-02-06T02:46:14.035Z,96504.75
2023-02-06T02:48:44.033Z,96506.78
2023-02-06T02:51:12.649Z,96495.44
2023-02-06T02:53:39.447Z,96503.44
2023-02-06T02:56:16.156Z,96504.94
2023-02-06T02:58:45.870Z,96506.56
2023-02-06T03:01:14.110Z,96499.69
2023-02-06T03:03:44.560Z,96502.31
2023-02-06T03:06:38.547Z,96492.81
2023-02-06T03:09:11.546Z,96498.19
2023-02-06T03:11:44.191Z,96490.50
2023-02-06T03:14:17.871Z,96497.66
2023-02-06T03:16:50.359Z,96507.31
2023-02-06T03:19:21.559Z,96501.94
2023-02-06T03:21:49.996Z,96509.78
2023-02-06T03:24:21.192Z,96514.19
2023-02-06T03:26:50.214Z,96507.31
2023-02-06T03:29:18.769Z,96511.72
2023-02-06T03:31:49.591Z,96511.72
2023-02-06T03:34:22.154Z,96516.81
2023-02-06T03:36:51.700Z,96516.81
2023-02-06T03:39:18.585Z,96525.47
2023-02-06T03:41:47.055Z,96530.34
2023-02-06T03:44:18.818Z,96529.69
2023-02-06T03:46:47.539Z,96515.94
2023-02-06T03:49:16.807Z,96515.00
2023-02-06T03:51:47.382Z,96521.13
2023-02-06T03:54:19.318Z,96506.66
2023-02-06T03:56:52.214Z,96513.13
2023-02-06T03:59:18.810Z,96518.47
2023-02-06T04:01:49.118Z,96521.78
2023-02-06T04:04:16.138Z,96524.41
2023-02-06T04:06:42.954Z,96524.47
2023-02-06T04:09:09.546Z,96525.22
2023-02-06T04:11:37.441Z,96534.03
2023-02-06T04:14:04.200Z,96538.72
2023-02-06T04:16:30.857Z,96541.28
2023-02-06T04:18:57.472Z,96532.28
2023-02-06T04:21:24.001Z,96543.38
2023-02-06T04:23:50.539Z,96542.41
2023-02-06T04:26:17.069Z,96545.69
2023-02-06T04:28:44.965Z,96551.06
2023-02-06T04:31:11.609Z,96553.00
2023-02-06T04:33:38.198Z,96568.44
2023-02-06T04:36:05.170Z,96560.22
2023-02-06T04:38:31.690Z,96576.09
2023-02-06T04:41:02.499Z,96563.44
2023-02-06T04:43:29.134Z,96555.97
2023-02-06T04:45:57.260Z,96558.97
2023-02-06T04:48:23.830Z,96554.00
2023-02-06T04:50:50.966Z,96555.66
2023-02-06T04:53:17.661Z,96542.97
2023-02-06T04:55:44.183Z,96540.50
2023-02-06T04:58:10.944Z,96540.34
2023-02-06T05:00:38.811Z,96548.50
2023-02-06T05:03:07.161Z,96549.03
2023-02-06T05:05:33.829Z,96556.72
2023-02-06T05:08:00.529Z,96546.25
2023-02-06T05:10:27.418Z,96552.31
2023-02-06T05:12:55.976Z,96541.56
2023-02-06T05:15:22.780Z,96537.31
2023-02-06T05:17:49.330Z,96538.81
2023-02-06T05:20:17.569Z,96539.06
2023-02-06T05:22:44.099Z,96536.22
2023-02-06T05:25:10.626Z,96531.41
2023-02-06T05:27:37.153Z,96535.50
2023-02-06T05:30:04.346Z,96533.59
2023-02-06T05:32:30.881Z,96536.19
2023-02-06T05:34:57.437Z,96532.06
2023-02-06T05:37:25.294Z,96535.38
2023-02-06T05:39:51.860Z,96535.22
2023-02-06T05:42:18.374Z,96532.63
2023-02-06T05:44:44.917Z,96528.50
2023-02-06T05:47:11.464Z,96530.28
2023-02-06T05:49:38.104Z,96528.34
2023-02-06T05:52:05.380Z,96511.53
2023-02-06T05:54:33.245Z,96510.56
2023-02-06T05:56:59.882Z,96500.16
2023-02-06T05:59:26.546Z,96505.09
2023-02-06T06:01:53.343Z,96495.31
2023-02-06T06:04:19.894Z,96489.41
2023-02-06T06:06:46.473Z,96488.97
2023-02-06T06:09:13.005Z,96482.78
2023-02-06T06:11:40.880Z,96473.41
2023-02-06T06:14:07.446Z,96478.66
2023-02-06T06:16:34.431Z,96461.16
2023-02-06T06:19:01.827Z,96462.13
2023-02-06T06:21:28.379Z,96475.34
2023-02-06T06:23:54.937Z,96483.22
2023-02-06T06:26:21.738Z,96490.09
2023-02-06T06:28:49.598Z,96476.31
2023-02-06T06:31:16.434Z,96486.78
2023-02-06T06:33:43.044Z,96481.56
2023-02-06T06:36:14.232Z,96478.25
2023-02-06T06:38:41.311Z,96483.34
2023-02-06T06:41:07.982Z,96476.47
2023-02-06T06:43:34.782Z,96485.28
2023-02-06T06:46:04.592Z,96493.16
2023-02-06T06:48:31.541Z,96498.38
2023-02-06T06:50:58.087Z,96507.84
2023-02-06T06:53:24.616Z,96513.09
2023-02-06T06:55:51.140Z,96515.28
2023-02-06T06:58:17.689Z,96523.41
2023-02-06T07:00:44.870Z,96520.41
2023-02-06T07:03:12.891Z,96525.50
2023-02-06T07:05:39.577Z,96527.28
2023-02-06T07:08:06.307Z,96534.31
2023-02-06T07:10:32.983Z,96529.06
2023-02-06T07:12:59.566Z,96531.81
2023-02-06T07:15:26.124Z,96531.81
2023-02-06T07:17:52.710Z,96530.44
2023-02-06T07:20:20.626Z,96519.56
2023-02-06T07:22:47.566Z,96526.28
2023-02-06T07:25:14.118Z,96524.38
2023-02-06T07:27:40.689Z,96527.69
2023-02-06T07:30:08.851Z,96523.88
2023-02-06T07:32:35.695Z,96526.88
2023-02-06T07:35:02.538Z,96518.22
2023-02-06T07:37:30.644Z,96519.03
2023-02-06T07:39:57.295Z,96519.19
2023-02-06T07:42:23.846Z,96505.97
2023-02-06T07:44:50.930Z,96500.06
2023-02-06T07:47:17.524Z,96494.81
2023-02-06T07:49:44.050Z,96499.09
2023-02-06T07:52:10.602Z,96498.94
2023-02-06T07:54:38.497Z,96498.94
2023-02-06T07:57:05.038Z,96492.88
2023-02-06T07:59:31.687Z,96500.72
2023-02-06T08:01:58.453Z,96489.44
2023-02-06T08:04:25.127Z,96486.09
2023-02-06T08:06:52.843Z,96484.06
2023-02-06T08:09:19.410Z,96482.44
2023-02-06T08:11:47.527Z,96484.22
2023-02-06T08:14:14.061Z,96493.72
2023-02-06T08:16:40.853Z,96480.63
2023-02-06T08:19:10.758Z,96493.84
2023-02-06T08:21:37.584Z,96497.97
2023-02-06T08:24:04.925Z,96502.91
2023-02-06T08:26:31.965Z,96500.06
2023-02-06T08:29:02.897Z,96505.28
2023-02-06T08:31:31.561Z,96519.16
2023-02-06T08:33:58.203Z,96531.28
2023-02-06T08:36:25.867Z,96533.72
2023-02-06T08:38:53.099Z,96544.06
2023-02-06T08:41:22.090Z,96550.44
2023-02-06T08:43:50.594Z,96552.75
2023-02-06T08:46:19.853Z,96557.97
2023-02-06T08:48:46.796Z,96560.91
2023-02-06T08:51:14.239Z,96563.75
2023-02-06T08:53:41.295Z,96568.50
2023-02-06T08:56:10.424Z,96572.00
2023-02-06T08:58:37.720Z,96571.22
2023-02-06T09:01:07.789Z,96577.78
2023-02-06T09:03:36.200Z,96579.53
2023-02-06T09:06:09.694Z,96579.59
2023-02-06T09:08:38.002Z,96582.22
2023-02-06T09:11:05.453Z,96583.47
2023-02-06T09:13:32.180Z,96585.56
2023-02-06T09:15:58.973Z,96586.88
2023-02-06T09:18:25.553Z,96593.97
2023-02-06T09:21:03.331Z,96586.84
2023-02-06T09:23:29.891Z,96589.56
2023-02-06T09:25:56.418Z,96581.19
2023-02-06T09:28:23.072Z,96588.03
2023-02-06T09:30:50.083Z,96590.06
2023-02-06T09:33:16.692Z,96585.28
2023-02-06T09:35:43.208Z,96585.75
2023-02-06T09:38:11.146Z,96588.03
2023-02-06T09:40:37.735Z,96583.13
2023-02-06T09:43:05.082Z,96588.94
2023-02-06T09:45:32.991Z,96594.75
2023-02-06T09:48:06.219Z,96587.06
2023-02-06T09:50:45.541Z,96584.31
2023-02-06T09:53:20.889Z,96578.84
2023-02-06T09:55:51.979Z,96585.44
2023-02-06T09:58:30.071Z,96584.06
2023-02-06T10:01:02.655Z,96585.59
2023-02-06T10:03:44.934Z,96581.19
2023-02-06T10:06:19.083Z,96573.66
2023-02-06T10:08:54.067Z,96572.53
2023-02-06T10:11:30.870Z,96562.63
2023-02-06T10:14:00.577Z,96560.84
2023-02-06T10:16:38.234Z,96545.44
2023-02-06T10:19:09.718Z,96551.63
2023-02-06T10:21:41.306Z,96542.00
2023-02-06T10:24:17.853Z,96546.13
2023-02-06T10:26:47.870Z,96536.22
2023-02-06T10:29:21.011Z,96531.81
2023-02-06T10:31:59.490Z,96524.53
2023-02-06T10:34:47.397Z,96517.78
2023-02-06T10:37:26.062Z,96512.63
2023-02-06T10:40:03.154Z,96513.41
2023-02-06T10:42:45.549Z,96490.72
2023-02-06T10:45:22.042Z,96494.56
2023-02-06T10:47:54.971Z,96483.28
2023-02-06T10:50:26.747Z,96471.59
2023-02-06T10:52:55.632Z,96471.41
2023-02-06T10:55:27.371Z,96469.50
2023-02-06T10:58:06.813Z,96463.25
2023-02-06T11:00:34.448Z,96461.72
2023-02-06T11:03:08.160Z,96452.63
2023-02-06T11:05:35.991Z,96442.75
2023-02-06T11:08:11.087Z,96436.59
2023-02-06T11:10:39.950Z,96427.25
2023-02-06T11:13:12.681Z,96425.75
2023-02-06T11:15:45.575Z,96419.16
2023-02-06T11:18:18.633Z,96412.41
2023-02-06T11:20:48.370Z,96409.66
2023-02-06T11:23:17.026Z,96393.84
2023-02-06T11:25:46.086Z,96397.28
2023-02-06T11:28:15.081Z,96399.97
2023-02-06T11:30:53.318Z,96397.06
2023-02-06T11:33:25.086Z,96395.47
2023-02-06T11:35:54.783Z,96392.50
2023-02-06T11:38:22.093Z,96391.97
2023-02-06T11:41:00.537Z,96379.56
2023-02-06T11:43:29.933Z,96372.31
2023-02-06T11:46:13.763Z,96377.53
2023-02-06T11:48:42.176Z,96364.41
2023-02-06T11:51:10.420Z,96362.88
2023-02-06T11:53:37.903Z,96357.22
2023-02-06T11:56:16.570Z,96357.75
2023-02-06T11:58:44.026Z,96366.56
2023-02-06T12:01:18.140Z,96349.78
2023-02-06T12:03:54.926Z,96348.19
2023-02-06T12:06:28.191Z,96357.22
2023-02-06T12:08:57.397Z,96355.56
2023-02-06T12:11:29.456Z,96350.59
2023-02-06T12:14:00.498Z,96357.88
2023-02-06T12:16:27.669Z,96356.00
2023-02-06T12:18:57.509Z,96352.13
2023-02-06T12:21:30.127Z,96340.66
2023-02-06T12:24:00.071Z,96344.75
2023-02-06T12:26:30.396Z,96345.78
2023-02-06T12:29:02.750Z,96352.03
2023-02-06T12:31:38.227Z,96333.59
2023-02-06T12:34:13.771Z,96328.91
2023-02-06T12:36:53.303Z,96329.88
2023-02-06T12:39:21.759Z,96326.72
2023-02-06T12:42:06.538Z,96325.50
2023-02-06T12:44:39.332Z,96322.78
2023-02-06T12:47:18.834Z,96329.59
2023-02-06T12:49:52.425Z,96324.94
2023-02-06T12:52:24.914Z,96319.56
2023-02-06T12:54:55.516Z,96308.50
2023-02-06T12:57:26.763Z,96310.72
2023-02-06T13:00:20.360Z,96295.97
2023-02-06T13:03:12.704Z,96290.25
2023-02-06T13:05:41.461Z,96281.84
2023-02-06T13:08:12.896Z,96276.78
2023-02-06T13:10:40.344Z,96271.41
2023-02-06T13:13:25.732Z,96269.16
2023-02-06T13:15:54.896Z,96268.34
2023-02-06T13:18:54.025Z,96267.09
2023-02-06T13:21:24.114Z,96268.59
2023-02-06T13:24:06.491Z,96265.84
2023-02-06T13:27:10.617Z,96265.00
2023-02-06T13:29:39.601Z,96273.97
2023-02-06T13:32:40.859Z,96271.19
2023-02-06T13:35:20.006Z,96280.84
2023-02-06T13:37:48.436Z,96281.59
2023-02-06T13:40:27.383Z,96277.47
2023-02-06T13:42:56.855Z,96280.28
2023-02-06T13:45:27.612Z,96285.19
2023-02-06T13:48:29.709Z,96291.22
2023-02-06T13:51:25.745Z,96290.63
2023-02-06T13:54:30.535Z,96291.34
2023-02-06T13:57:16.989Z,96289.78
2023-02-06T13:59:48.961Z,96298.06
2023-02-06T14:02:24.231Z,96296.81
2023-02-06T14:04:51.266Z,96299.56
2023-02-06T14:07:54.890Z,96288.06
2023-02-06T14:10:41.995Z,96283.91
2023-02-06T14:13:23.562Z,96289.50
2023-02-06T14:15:58.718Z,96298.97
2023-02-06T14:18:38.309Z,96302.44
2023-02-06T14:21:16.467Z,96308.38
2023-02-06T14:24:07.542Z,96305.88
2023-02-06T14:26:44.004Z,96299.28
2023-02-06T14:29:22.174Z,96304.25
2023-02-06T14:32:25.838Z,96298.66
2023-02-06T14:35:06.016Z,96300.59
2023-02-06T14:37:45.052Z,96304.19
2023-02-06T14:40:17.778Z,96308.84
2023-02-06T14:42:46.087Z,96310.00
2023-02-06T14:45:25.718Z,96327.00
2023-02-06T14:47:54.808Z,96324.28
2023-02-06T14:50:25.262Z,96328.03
2023-02-06T14:52:54.295Z,96323.03
2023-02-06T14:55:30.540Z,96318.34
2023-02-06T14:57:57.942Z,96322.38
2023-02-06T15:00:25.921Z,96324.50
2023-02-06T15:03:04.545Z,96335.66
2023-02-06T15:05:33.249Z,96331.00
2023-02-06T15:08:02.202Z,96328.50
2023-02-06T15:10:30.804Z,96332.75
2023-02-06T15:12:57.550Z,96329.47
2023-02-06T15:15:25.751Z,96321.53
2023-02-06T15:18:00.410Z,96316.06
2023-02-06T15:20:30.467Z,96316.81
2023-02-06T15:23:17.130Z,96311.38
2023-02-06T15:25:58.625Z,96307.78
2023-02-06T15:28:29.232Z,96305.19
2023-02-06T15:30:57.425Z,96290.91
2023-02-06T15:33:28.086Z,96301.16
2023-02-06T15:35:56.616Z,96294.44
2023-02-06T15:38:26.496Z,96291.88
2023-02-06T15:40:55.877Z,96284.13
2023-02-06T15:43:25.382Z,96284.91
2023-02-06T15:45:55.589Z,96290.59
2023-02-06T15:48:26.413Z,96290.66
2023-02-06T15:50:58.371Z,96297.78
2023-02-06T15:53:35.993Z,96295.28
2023-02-06T15:56:04.724Z,96298.25
2023-02-06T15:58:32.894Z,96305.81
2023-02-06T16:01:00.476Z,96299.47
2023-02-06T16:03:29.327Z,96292.06
2023-02-06T16:05:56.700Z,96294.28
2023-02-06T16:08:29.072Z,96298.88
2023-02-06T16:11:01.074Z,96292.00
2023-02-06T16:13:30.573Z,96297.00
2023-02-06T16:16:07.149Z,96298.09
2023-02-06T16:18:35.327Z,96296.94
2023-02-06T16:21:14.691Z,96308.31
2023-02-06T16:23:45.747Z,96311.44
2023-02-06T16:26:16.783Z,96304.50
2023-02-06T16:28:56.744Z,96312.22
2023-02-06T16:31:25.614Z,96320.41
2023-02-06T16:33:53.680Z,96317.91
2023-02-06T16:36:22.242Z,96327.28
2023-02-06T16:39:02.872Z,96338.44
2023-02-06T16:41:34.133Z,96330.53
2023-02-06T16:44:02.180Z,96342.06
2023-02-06T16:46:29.683Z,96352.13
2023-02-06T16:48:58.284Z,96355.31
2023-02-06T16:51:28.279Z,96359.50
2023-02-06T16:53:55.340Z,96362.38
2023-02-06T16:56:22.005Z,96369.91
2023-02-06T16:58:50.461Z,96369.47
2023-02-06T17:01:22.905Z,96364.34
2023-02-06T17:03:50.489Z,96368.22
2023-02-06T17:06:20.756Z,96366.69
2023-02-06T17:08:47.974Z,96365.75
2023-02-06T17:11:14.605Z,96377.19
2023-02-06T17:13:41.189Z,96379.94
2023-02-06T17:16:15.002Z,96371.75
2023-02-06T17:18:41.569Z,96374.81
2023-02-06T17:21:12.605Z,96373.00
2023-02-06T17:23:39.510Z,96380.25
2023-02-06T17:26:06.316Z,96380.84
2023-02-06T17:28:32.836Z,96385.22
2023-02-06T17:30:59.433Z,96389.59
2023-02-06T17:33:27.575Z,96394.97
2023-02-06T17:35:54.148Z,96397.72
2023-02-06T17:38:20.746Z,96413.94
2023-02-06T17:40:47.349Z,96410.97
2023-02-06T17:43:13.926Z,96402.69
2023-02-06T17:45:40.822Z,96408.63
2023-02-06T17:48:07.912Z,96411.88
2023-02-06T17:50:38.037Z,96424.88
2023-02-06T17:53:05.891Z,96420.34
2023-02-06T17:55:34.203Z,96422.97
2023-02-06T17:58:01.169Z,96425.81
2023-02-06T18:00:27.713Z,96427.13
2023-02-06T18:02:55.669Z,96427.50
2023-02-06T18:05:22.946Z,96432.06
2023-02-06T18:07:51.826Z,96425.97
2023-02-06T18:10:20.132Z,96439.50
2023-02-06T18:12:46.924Z,96438.41
2023-02-06T18:15:15.242Z,96435.41
2023-02-06T18:17:42.709Z,96435.41
2023-02-06T18:20:11.304Z,96435.88
2023-02-06T18:22:41.257Z,96424.78
2023-02-06T18:25:11.444Z,96410.41
2023-02-06T18:27:39.421Z,96405.34
2023-02-06T18:30:06.764Z,96411.59
2023-02-06T18:32:33.871Z,96403.22
2023-02-06T18:35:00.713Z,96398.41
2023-02-06T18:37:27.574Z,96391.97
2023-02-06T18:39:55.277Z,96385.50
2023-02-06T18:42:41.792Z,96384.13
2023-02-06T18:45:09.297Z,96387.28
2023-02-06T18:47:35.867Z,96370.38
2023-02-06T18:50:02.456Z,96365.00
2023-02-06T18:52:29.158Z,96369.25
2023-02-06T18:54:55.720Z,96371.31
2023-02-06T18:57:23.646Z,96367.88
2023-02-06T18:59:50.211Z,96373.91
2023-02-06T19:02:16.884Z,96377.50
2023-02-06T19:04:43.500Z,96374.19
2023-02-06T19:07:11.618Z,96378.59
2023-02-06T19:09:38.299Z,96381.59
2023-02-06T19:12:05.064Z,96382.56
2023-02-06T19:14:32.928Z,96383.13
2023-02-06T19:16:59.559Z,96382.84
2023-02-06T19:19:26.171Z,96382.84
2023-02-06T19:21:52.811Z,96377.31
2023-02-06T19:24:19.580Z,96369.06
2023-02-06T19:26:46.392Z,96371.66
2023-02-06T19:29:15.017Z,96375.38
2023-02-06T19:31:43.247Z,96374.13
2023-02-06T19:34:09.938Z,96366.03
2023-02-06T19:36:36.726Z,96360.66
2023-02-06T19:39:06.697Z,96359.81
2023-02-06T19:41:34.292Z,96360.66
2023-02-06T19:44:03.099Z,96374.53
2023-02-06T19:46:29.703Z,96371.91
2023-02-06T19:48:57.672Z,96362.44
2023-02-06T19:51:26.558Z,96377.16
2023-02-06T19:53:55.168Z,96371.78
2023-02-06T19:56:23.667Z,96371.78
2023-02-06T19:58:53.839Z,96368.88
2023-02-06T20:01:20.667Z,96363.38
2023-02-06T20:03:47.423Z,96365.16
2023-02-06T20:06:15.736Z,96366.81
2023-02-06T20:08:44.346Z,96355.53
2023-02-06T20:11:13.612Z,96360.75
2023-02-06T20:13:40.867Z,96359.78
2023-02-06T20:16:14.233Z,96347.56
2023-02-06T20:18:40.952Z,96341.66
2023-02-06T20:21:20.758Z,96341.66
2023-02-06T20:23:49.626Z,96345.75
2023-02-06T20:26:17.695Z,96339.56
2023-02-06T20:28:44.962Z,96354.72
2023-02-06T20:31:12.086Z,96353.06
2023-02-06T20:33:38.965Z,96354.72
2023-02-06T20:36:06.599Z,96354.72
2023-02-06T20:38:34.572Z,96375.47
2023-02-06T20:41:01.316Z,96379.88
2023-02-06T20:43:28.564Z,96379.03
2023-02-06T20:45:55.244Z,96378.75
2023-02-06T20:48:22.489Z,96373.53
2023-02-06T20:50:49.045Z,96374.34
2023-02-06T20:53:15.575Z,96370.09
2023-02-06T20:55:44.134Z,96365.69
2023-02-06T20:58:10.691Z,96365.69
2023-02-06T21:00:37.506Z,96355.91
2023-02-06T21:03:04.547Z,96355.38
2023-02-06T21:05:31.175Z,96370.09
2023-02-06T21:07:58.813Z,96366.94
2023-02-06T21:10:27.961Z,96371.22
2023-02-06T21:12:56.051Z,96357.84
2023-02-06T21:15:22.681Z,96346.97
2023-02-06T21:17:49.341Z,96355.09
2023-02-06T21:20:15.947Z,96363.91
2023-02-06T21:22:42.623Z,96362.41
2023-02-06T21:25:09.366Z,96360.75
2023-02-06T21:27:37.268Z,96345.09
2023-02-06T21:30:06.480Z,96359.09
2023-02-06T21:32:33.773Z,96359.25
2023-02-06T21:35:00.410Z,96365.97
2023-02-06T21:37:27.088Z,96355.00
2023-02-06T21:39:53.644Z,96367.91
2023-02-06T21:42:26.070Z,96365.31
2023-02-06T21:44:52.800Z,96371.09
2023-02-06T21:47:20.675Z,96375.09
2023-02-06T21:49:47.276Z,96375.34
2023-02-06T21:52:13.858Z,96370.00
2023-02-06T21:54:40.469Z,96367.53
2023-02-06T21:57:07.031Z,96372.75
2023-02-06T21:59:34.133Z,96378.78
2023-02-06T22:02:00.858Z,96373.72
2023-02-06T22:04:29.229Z,96367.66
2023-02-06T22:06:55.858Z,96357.22
2023-02-06T22:09:23.070Z,96354.75
2023-02-06T22:11:49.619Z,96354.75
2023-02-06T22:14:17.823Z,96358.31
2023-02-06T22:16:46.746Z,96358.47
2023-02-06T22:19:14.561Z,96366.97
2023-02-06T22:21:42.560Z,96362.88
2023-02-06T22:24:11.458Z,96364.66
2023-02-06T22:26:38.692Z,96371.00
2023-02-06T22:29:06.282Z,96378.00
2023-02-06T22:31:33.883Z,96369.19
2023-02-06T22:34:01.101Z,96365.91
2023-02-06T22:36:29.678Z,96365.75
2023-02-06T22:38:59.662Z,96366.72
2023-02-06T22:41:26.932Z,96371.00
2023-02-06T22:43:53.549Z,96380.63
2023-02-06T22:46:23.924Z,96390.25
2023-02-06T22:48:51.071Z,96380.22
2023-02-06T22:51:18.393Z,96366.19
2023-02-06T22:53:45.371Z,96363.72
2023-02-06T22:56:31.362Z,96356.16
2023-02-06T22:59:00.166Z,96356.03
2023-02-06T23:01:30.567Z,96354.38
2023-02-06T23:03:57.787Z,96347.50
2023-02-06T23:06:26.133Z,96344.91
2023-02-06T23:08:53.244Z,96339.00
2023-02-06T23:11:21.387Z,96340.50
2023-02-06T23:13:51.568Z,96341.75
2023-02-06T23:16:18.203Z,96339.97
2023-02-06T23:18:44.768Z,96335.03
2023-02-06T23:21:13.193Z,96333.25
2023-02-06T23:23:40.754Z,96340.84
2023-02-06T23:26:10.176Z,96338.56
2023-02-06T23:28:38.766Z,96329.84
2023-02-06T23:31:06.653Z,96322.78
2023-02-06T23:33:34.048Z,96323.22
2023-02-06T23:36:03.828Z,96327.63
2023-02-06T23:38:30.186Z,96331.84
2023-02-06T23:41:04.110Z,96335.50
2023-02-06T23:43:30.644Z,96330.81
2023-02-06T23:45:58.665Z,96341.13
2023-02-06T23:48:25.248Z,96345.94
2023-02-06T23:50:52.185Z,96346.59
2023-02-06T23:53:18.753Z,96345.66
2023-02-06T23:55:45.316Z,96361.53
2023-02-06T23:58:11.868Z,96356.97
